createdAt,value
2023-03-05T00:01:18.324Z,6.03
2023-03-05T00:03:46.430Z,7.82
2023-03-05T00:06:13.879Z,8.18
2023-03-05T00:08:41.166Z,7.72
2023-03-05T00:11:11.105Z,7.03
2023-03-05T00:13:38.862Z,7.70
2023-03-05T00:16:08.768Z,6.57
2023-03-05T00:18:36.922Z,7.03
2023-03-05T00:21:05.457Z,7.78
2023-03-05T00:23:32.792Z,7.05
2023-03-05T00:26:03.711Z,7.55
2023-03-05T00:28:31.403Z,8.15
2023-03-05T00:31:01.237Z,8.13
2023-03-05T00:33:28.906Z,8.85
2023-03-05T00:35:57.188Z,8.23
2023-03-05T00:38:24.681Z,8.30
2023-03-05T00:40:52.196Z,7.60
2023-03-05T00:43:19.982Z,9.57
2023-03-05T00:45:47.322Z,8.70
2023-03-05T00:48:14.625Z,7.47
2023-03-05T00:50:41.903Z,7.90
2023-03-05T00:53:09.201Z,8.00
2023-03-05T00:55:36.521Z,7.82
2023-03-05T00:58:04.000Z,7.55
2023-03-05T01:00:31.417Z,7.75
2023-03-05T01:02:59.135Z,7.75
2023-03-05T01:05:27.253Z,8.25
2023-03-05T01:07:55.578Z,6.82
2023-03-05T01:10:26.615Z,7.78
2023-03-05T01:12:55.707Z,7.55
2023-03-05T01:15:24.464Z,7.43
2023-03-05T01:17:52.166Z,8.30
2023-03-05T01:20:23.223Z,8.63
2023-03-05T01:22:50.787Z,8.50
2023-03-05T01:25:18.793Z,8.13
2023-03-05T01:27:46.398Z,8.15
2023-03-05T01:30:15.008Z,8.32
2023-03-05T01:32:43.261Z,8.10
2023-03-05T01:35:17.636Z,9.25
2023-03-05T01:37:45.134Z,8.73
2023-03-05T01:40:14.741Z,9.23
2023-03-05T01:42:48.230Z,8.90
2023-03-05T01:45:19.072Z,9.50
2023-03-05T01:47:46.863Z,7.50
2023-03-05T01:50:17.415Z,8.15
2023-03-05T01:52:51.793Z,8.48
2023-03-05T01:55:23.560Z,8.55
2023-03-05T01:58:04.986Z,8.60
2023-03-05T02:00:36.897Z,9.18
2023-03-05T02:03:07.332Z,8.20
2023-03-05T02:05:36.932Z,9.18
2023-03-05T02:08:08.106Z,8.95
2023-03-05T02:10:44.160Z,9.35
2023-03-05T02:13:19.606Z,9.18
2023-03-05T02:15:47.720Z,8.52
2023-03-05T02:18:16.330Z,10.05
2023-03-05T02:20:51.632Z,9.00
2023-03-05T02:23:21.115Z,10.32
2023-03-05T02:25:48.736Z,10.63
2023-03-05T02:28:16.152Z,8.82
2023-03-05T02:30:43.485Z,10.35
2023-03-05T02:33:10.770Z,10.85
2023-03-05T02:35:38.210Z,11.23
2023-03-05T02:38:06.088Z,11.32
2023-03-05T02:40:33.408Z,10.18
2023-03-05T02:43:00.748Z,10.63
2023-03-05T02:45:28.853Z,11.50
2023-03-05T02:47:56.063Z,10.90
2023-03-05T02:50:24.679Z,10.85
2023-03-05T02:52:52.029Z,10.38
2023-03-05T02:55:20.909Z,10.90
2023-03-05T02:57:48.166Z,10.77
2023-03-05T03:00:16.060Z,9.75
2023-03-05T03:02:43.425Z,10.55
2023-03-05T03:05:11.074Z,10.65
2023-03-05T03:07:38.442Z,11.40
2023-03-05T03:10:06.634Z,10.85
2023-03-05T03:12:38.704Z,10.45
2023-03-05T03:15:08.000Z,11.23
2023-03-05T03:17:36.840Z,11.45
2023-03-05T03:20:08.033Z,10.25
2023-03-05T03:22:35.504Z,10.70
2023-03-05T03:25:04.011Z,11.80
2023-03-05T03:27:31.284Z,11.02
2023-03-05T03:30:02.594Z,11.40
2023-03-05T03:32:30.225Z,11.95
2023-03-05T03:34:58.108Z,11.57
2023-03-05T03:37:25.575Z,11.57
2023-03-05T03:39:52.863Z,12.13
2023-03-05T03:42:21.558Z,12.40
2023-03-05T03:44:49.475Z,11.98
2023-03-05T03:47:17.269Z,11.38
2023-03-05T03:49:44.503Z,12.77
2023-03-05T03:52:11.837Z,12.85
2023-03-05T03:54:39.103Z,11.45
2023-03-05T03:57:06.515Z,12.05
2023-03-05T03:59:33.862Z,12.13
2023-03-05T04:02:01.236Z,12.23
2023-03-05T04:04:30.269Z,11.38
2023-03-05T04:06:57.750Z,10.95
2023-03-05T04:09:24.974Z,11.40
2023-03-05T04:11:52.223Z,12.75
2023-03-05T04:14:19.549Z,12.25
2023-03-05T04:16:46.811Z,12.55
2023-03-05T04:19:14.092Z,12.35
2023-03-05T04:21:41.640Z,11.85
2023-03-05T04:24:09.219Z,12.13
2023-03-05T04:26:36.570Z,13.13
2023-03-05T04:29:04.075Z,13.35
2023-03-05T04:31:31.360Z,11.95
2023-03-05T04:33:59.757Z,12.40
2023-03-05T04:36:27.079Z,12.18
2023-03-05T04:38:54.316Z,11.73
2023-03-05T04:41:21.610Z,11.50
2023-03-05T04:43:48.900Z,12.13
2023-03-05T04:46:16.233Z,12.13
2023-03-05T04:48:43.896Z,10.93
2023-03-05T04:51:11.119Z,10.60
2023-03-05T04:53:38.368Z,11.65
2023-03-05T04:56:06.056Z,10.13
2023-03-05T04:58:33.293Z,10.20
2023-03-05T05:01:02.422Z,11.75
2023-03-05T05:03:30.210Z,10.43
2023-03-05T05:05:59.237Z,13.20
2023-03-05T05:08:27.455Z,10.80
2023-03-05T05:11:05.833Z,9.68
2023-03-05T05:13:33.938Z,10.63
2023-03-05T05:16:01.465Z,10.75
2023-03-05T05:18:28.725Z,12.10
2023-03-05T05:20:56.115Z,10.48
2023-03-05T05:23:23.433Z,11.85
2023-03-05T05:26:01.365Z,10.73
2023-03-05T05:28:29.198Z,9.50
2023-03-05T05:30:56.500Z,12.32
2023-03-05T05:33:24.629Z,12.20
2023-03-05T05:35:51.992Z,12.35
2023-03-05T05:38:19.390Z,10.35
2023-03-05T05:40:47.089Z,11.85
2023-03-05T05:43:14.420Z,10.13
2023-03-05T05:45:41.809Z,9.55
2023-03-05T05:48:09.128Z,11.93
2023-03-05T05:50:38.169Z,9.80
2023-03-05T05:53:05.546Z,11.55
2023-03-05T05:55:32.886Z,13.57
2023-03-05T05:58:00.266Z,13.40
2023-03-05T06:00:27.574Z,12.88
2023-03-05T06:02:54.955Z,12.43
2023-03-05T06:05:22.367Z,12.63
2023-03-05T06:07:49.613Z,12.43
2023-03-05T06:10:17.511Z,12.43
2023-03-05T06:12:44.740Z,13.48
2023-03-05T06:15:12.311Z,14.10
2023-03-05T06:17:39.672Z,13.80
2023-03-05T06:20:09.777Z,13.40
2023-03-05T06:22:38.356Z,14.68
2023-03-05T06:25:07.515Z,13.35
2023-03-05T06:27:35.776Z,13.48
2023-03-05T06:30:03.571Z,13.75
2023-03-05T06:32:30.906Z,13.25
2023-03-05T06:34:58.634Z,14.07
2023-03-05T06:37:26.229Z,13.55
2023-03-05T06:39:53.864Z,13.55
2023-03-05T06:42:21.105Z,12.95
2023-03-05T06:44:48.503Z,12.38
2023-03-05T06:47:15.908Z,12.07
2023-03-05T06:49:43.602Z,13.50
2023-03-05T06:52:12.738Z,13.70
2023-03-05T06:54:40.402Z,11.20
2023-03-05T06:57:07.660Z,14.00
2023-03-05T06:59:34.914Z,13.23
2023-03-05T07:02:02.235Z,11.48
2023-03-05T07:04:29.961Z,10.63
2023-03-05T07:06:58.392Z,10.73
2023-03-05T07:09:25.648Z,12.55
2023-03-05T07:11:52.899Z,12.90
2023-03-05T07:14:20.191Z,13.25
2023-03-05T07:16:47.550Z,12.95
2023-03-05T07:19:14.902Z,12.95
2023-03-05T07:21:42.183Z,10.48
2023-03-05T07:24:09.561Z,12.35
2023-03-05T07:26:37.506Z,10.40
2023-03-05T07:29:05.098Z,10.40
2023-03-05T07:31:32.517Z,10.65
2023-03-05T07:34:01.764Z,12.32
2023-03-05T07:36:30.145Z,11.90
2023-03-05T07:38:57.484Z,11.32
2023-03-05T07:41:25.014Z,10.82
2023-03-05T07:43:54.524Z,11.20
2023-03-05T07:46:26.856Z,11.52
2023-03-05T07:48:54.907Z,11.65
2023-03-05T07:51:23.571Z,11.65
2023-03-05T07:53:52.697Z,11.27
2023-03-05T07:56:24.652Z,13.18
2023-03-05T07:58:52.648Z,11.68
2023-03-05T08:01:20.517Z,12.07
2023-03-05T08:03:47.757Z,12.50
2023-03-05T08:06:15.272Z,12.10
2023-03-05T08:08:42.654Z,11.88
2023-03-05T08:11:12.725Z,9.93
2023-03-05T08:13:40.624Z,12.10
2023-03-05T08:16:11.287Z,11.88
2023-03-05T08:18:38.641Z,11.60
2023-03-05T08:21:06.850Z,13.60
2023-03-05T08:23:34.582Z,10.93
2023-03-05T08:26:02.289Z,11.50
2023-03-05T08:28:29.505Z,11.77
2023-03-05T08:30:57.283Z,12.45
2023-03-05T08:33:24.421Z,12.30
2023-03-05T08:35:52.099Z,10.88
2023-03-05T08:38:21.111Z,11.55
2023-03-05T08:40:48.453Z,13.57
2023-03-05T08:43:17.827Z,12.95
2023-03-05T08:45:45.236Z,10.23
2023-03-05T08:48:12.482Z,12.57
2023-03-05T08:50:40.208Z,12.75
2023-03-05T08:53:08.446Z,12.50
2023-03-05T08:55:36.608Z,13.88
2023-03-05T08:58:04.098Z,12.23
2023-03-05T09:00:31.810Z,13.20
2023-03-05T09:02:59.475Z,13.60
2023-03-05T09:05:26.741Z,13.95
2023-03-05T09:07:54.158Z,15.13
2023-03-05T09:10:21.600Z,15.10
2023-03-05T09:12:49.318Z,13.35
2023-03-05T09:15:16.571Z,14.45
2023-03-05T09:17:43.873Z,14.30
2023-03-05T09:20:13.583Z,12.15
2023-03-05T09:22:41.325Z,14.95
2023-03-05T09:25:11.496Z,16.30
2023-03-05T09:27:39.560Z,16.52
2023-03-05T09:30:07.927Z,14.20
2023-03-05T09:32:35.337Z,16.52
2023-03-05T09:35:03.356Z,13.52
2023-03-05T09:37:31.065Z,14.50
2023-03-05T09:39:58.740Z,17.95
2023-03-05T09:42:58.048Z,17.13
2023-03-05T09:45:28.410Z,15.93
2023-03-05T09:48:22.833Z,16.25
2023-03-05T09:51:02.825Z,17.10
2023-03-05T09:54:07.875Z,18.33
2023-03-05T09:56:37.886Z,7.97
2023-03-05T09:59:14.083Z,18.25
2023-03-05T10:01:44.716Z,18.67
2023-03-05T10:04:21.137Z,11.63
2023-03-05T10:07:08.902Z,17.55
2023-03-05T10:09:44.924Z,17.23
2023-03-05T10:12:39.116Z,17.95
2023-03-05T10:15:13.173Z,18.08
2023-03-05T10:18:05.637Z,18.42
2023-03-05T10:20:33.348Z,19.17
2023-03-05T10:23:04.229Z,19.63
2023-03-05T10:26:02.780Z,19.58
2023-03-05T10:29:12.879Z,17.38
2023-03-05T10:32:00.586Z,18.92
2023-03-05T10:34:43.437Z,11.27
2023-03-05T10:37:29.330Z,19.92
2023-03-05T10:40:10.970Z,18.77
2023-03-05T10:42:50.219Z,16.90
2023-03-05T10:45:28.130Z,17.65
2023-03-05T10:48:11.549Z,18.45
2023-03-05T10:50:53.544Z,19.08
2023-03-05T10:53:38.268Z,17.83
2023-03-05T10:56:06.671Z,20.15
2023-03-05T10:58:34.024Z,21.98
2023-03-05T11:01:03.790Z,20.00
2023-03-05T11:03:58.225Z,22.27
2023-03-05T11:06:28.687Z,19.52
2023-03-05T11:08:56.470Z,21.52
2023-03-05T11:11:23.892Z,22.80
2023-03-05T11:14:01.089Z,26.75
2023-03-05T11:16:31.906Z,25.45
2023-03-05T11:19:24.465Z,20.73
2023-03-05T11:22:16.681Z,22.92
2023-03-05T11:25:12.483Z,24.08
2023-03-05T11:27:57.668Z,26.38
2023-03-05T11:30:32.100Z,24.65
2023-03-05T11:33:22.478Z,25.48
2023-03-05T11:35:53.233Z,20.40
2023-03-05T11:38:26.275Z,26.33
2023-03-05T11:40:56.514Z,22.95
2023-03-05T11:43:26.178Z,23.25
2023-03-05T11:46:02.503Z,18.30
2023-03-05T11:48:37.167Z,22.63
2023-03-05T11:51:16.184Z,23.48
2023-03-05T11:53:46.451Z,19.80
2023-03-05T11:56:31.640Z,23.48
2023-03-05T11:58:59.343Z,21.67
2023-03-05T12:01:32.409Z,21.10
2023-03-05T12:04:00.967Z,22.10
2023-03-05T12:06:48.606Z,22.83
2023-03-05T12:11:58.375Z,20.90
2023-03-05T12:14:44.798Z,21.05
2023-03-05T12:17:28.731Z,22.92
2023-03-05T12:20:06.178Z,22.08
2023-03-05T12:22:44.590Z,22.27
2023-03-05T12:25:34.912Z,22.52
2023-03-05T12:28:02.544Z,22.20
2023-03-05T12:30:49.770Z,25.38
2023-03-05T12:33:33.789Z,15.50
2023-03-05T12:36:23.114Z,21.48
2023-03-05T12:38:55.109Z,24.63
2023-03-05T12:41:22.368Z,18.80
2023-03-05T12:44:08.636Z,19.63
2023-03-05T12:46:41.695Z,18.27
2023-03-05T12:49:22.822Z,18.05
2023-03-05T12:51:52.512Z,18.42
2023-03-05T12:54:26.834Z,17.90
2023-03-05T12:56:56.925Z,15.75
2023-03-05T12:59:32.967Z,17.58
2023-03-05T13:02:04.624Z,16.40
2023-03-05T13:04:37.024Z,19.20
2023-03-05T13:07:07.524Z,14.10
2023-03-05T13:09:36.506Z,17.45
2023-03-05T13:12:10.050Z,17.63
2023-03-05T13:14:46.986Z,17.30
2023-03-05T13:17:38.099Z,15.85
2023-03-05T13:20:28.509Z,11.85
2023-03-05T13:23:05.881Z,12.18
2023-03-05T13:25:33.578Z,10.38
2023-03-05T13:28:05.450Z,14.82
2023-03-05T13:30:34.622Z,14.00
2023-03-05T13:33:04.021Z,17.50
2023-03-05T13:35:33.058Z,17.60
2023-03-05T13:38:02.085Z,15.57
2023-03-05T13:40:32.243Z,15.10
2023-03-05T13:43:18.249Z,10.25
2023-03-05T13:45:55.042Z,15.60
2023-03-05T13:48:22.587Z,15.52
2023-03-05T13:50:56.632Z,13.98
2023-03-05T13:53:29.400Z,13.65
2023-03-05T13:56:00.540Z,8.13
2023-03-05T13:58:52.728Z,11.82
2023-03-05T14:01:28.226Z,13.73
2023-03-05T14:04:15.829Z,12.00
2023-03-05T14:07:05.855Z,13.68
2023-03-05T14:09:39.350Z,11.48
2023-03-05T14:12:30.312Z,12.32
2023-03-05T14:14:59.768Z,12.88
2023-03-05T14:17:43.487Z,11.98
2023-03-05T14:20:13.588Z,12.90
2023-03-05T14:22:46.255Z,13.05
2023-03-05T14:25:26.316Z,11.57
2023-03-05T14:27:53.680Z,12.95
2023-03-05T14:30:23.532Z,11.18
2023-03-05T14:32:54.080Z,11.93
2023-03-05T14:35:25.668Z,10.05
2023-03-05T14:37:56.797Z,9.65
2023-03-05T14:40:41.997Z,12.52
2023-03-05T14:43:11.183Z,11.77
2023-03-05T14:45:41.019Z,11.40
2023-03-05T14:48:10.475Z,9.43
2023-03-05T14:50:44.143Z,12.60
2023-03-05T14:53:18.624Z,13.30
2023-03-05T14:55:50.258Z,12.65
2023-03-05T14:58:22.751Z,13.45
2023-03-05T15:00:51.345Z,13.00
2023-03-05T15:03:20.410Z,12.50
2023-03-05T15:05:50.487Z,10.93
2023-03-05T15:08:22.499Z,12.10
2023-03-05T15:10:50.477Z,11.50
2023-03-05T15:13:19.049Z,10.98
2023-03-05T15:15:48.408Z,8.25
2023-03-05T15:18:18.908Z,11.98
2023-03-05T15:20:48.873Z,11.23
2023-03-05T15:23:16.262Z,12.85
2023-03-05T15:25:44.109Z,11.13
2023-03-05T15:28:11.881Z,13.68
2023-03-05T15:30:42.135Z,12.10
2023-03-05T15:33:12.212Z,10.80
2023-03-05T15:35:40.401Z,12.43
2023-03-05T15:38:07.705Z,9.52
2023-03-05T15:40:35.077Z,12.75
2023-03-05T15:43:02.758Z,12.23
2023-03-05T15:45:33.789Z,13.48
2023-03-05T15:48:01.460Z,13.00
2023-03-05T15:50:28.812Z,12.52
2023-03-05T15:52:56.575Z,11.07
2023-03-05T15:55:24.066Z,13.32
2023-03-05T15:57:52.287Z,12.93
2023-03-05T16:00:28.569Z,11.23
2023-03-05T16:02:56.064Z,9.32
2023-03-05T16:05:24.084Z,13.75
2023-03-05T16:07:52.536Z,15.13
2023-03-05T16:10:25.175Z,14.20
2023-03-05T16:13:01.824Z,13.60
2023-03-05T16:15:30.853Z,16.08
2023-03-05T16:18:02.745Z,14.73
2023-03-05T16:20:30.065Z,13.68
2023-03-05T16:22:57.369Z,13.05
2023-03-05T16:25:25.152Z,13.95
2023-03-05T16:27:52.382Z,14.77
2023-03-05T16:30:19.988Z,13.80
2023-03-05T16:32:47.544Z,14.70
2023-03-05T16:35:14.958Z,13.95
2023-03-05T16:37:42.667Z,13.73
2023-03-05T16:40:11.803Z,14.60
2023-03-05T16:42:39.197Z,14.13
2023-03-05T16:45:07.410Z,13.98
2023-03-05T16:47:35.273Z,14.60
2023-03-05T16:50:03.106Z,13.35
2023-03-05T16:52:30.298Z,13.38
2023-03-05T16:54:57.573Z,12.95
2023-03-05T16:57:25.665Z,12.52
2023-03-05T16:59:54.113Z,13.43
2023-03-05T17:02:21.766Z,14.52
2023-03-05T17:04:50.385Z,12.35
2023-03-05T17:07:18.630Z,12.18
2023-03-05T17:09:47.956Z,13.48
2023-03-05T17:12:15.603Z,11.57
2023-03-05T17:14:42.828Z,12.20
2023-03-05T17:17:11.689Z,10.80
2023-03-05T17:19:39.521Z,11.48
2023-03-05T17:22:06.901Z,12.07
2023-03-05T17:24:34.454Z,10.40
2023-03-05T17:27:02.120Z,10.07
2023-03-05T17:29:30.590Z,8.88
2023-03-05T17:31:58.287Z,8.13
2023-03-05T17:34:35.865Z,7.43
2023-03-05T17:37:05.295Z,8.30
2023-03-05T17:39:33.129Z,8.35
2023-03-05T17:42:01.090Z,7.78
2023-03-05T17:44:28.395Z,8.27
2023-03-05T17:46:55.676Z,8.23
2023-03-05T17:49:23.440Z,7.32
2023-03-05T17:51:50.805Z,8.60
2023-03-05T17:54:18.058Z,8.65
2023-03-05T17:56:47.957Z,8.88
2023-03-05T17:59:16.394Z,6.70
2023-03-05T18:01:44.135Z,6.47
2023-03-05T18:04:11.806Z,6.43
2023-03-05T18:06:39.372Z,6.45
2023-03-05T18:09:06.923Z,6.10
2023-03-05T18:11:34.256Z,6.28
2023-03-05T18:14:02.298Z,6.97
2023-03-05T18:16:30.051Z,6.07
2023-03-05T18:18:57.244Z,6.65
2023-03-05T18:21:27.665Z,5.88
2023-03-05T18:23:55.416Z,6.85
2023-03-05T18:26:22.596Z,6.95
2023-03-05T18:28:50.253Z,6.65
2023-03-05T18:31:17.438Z,7.70
2023-03-05T18:33:45.053Z,6.78
2023-03-05T18:36:13.881Z,7.38
2023-03-05T18:38:41.535Z,6.65
2023-03-05T18:41:09.355Z,7.50
2023-03-05T18:43:36.852Z,7.50
2023-03-05T18:46:06.034Z,5.97
2023-03-05T18:48:33.320Z,5.80
2023-03-05T18:51:02.080Z,7.35
2023-03-05T18:53:29.997Z,6.03
2023-03-05T18:55:57.194Z,6.88
2023-03-05T18:58:26.032Z,9.48
2023-03-05T19:00:53.705Z,6.85
2023-03-05T19:03:22.983Z,11.68
2023-03-05T19:05:51.193Z,8.40
2023-03-05T19:08:19.396Z,6.45
2023-03-05T19:10:47.583Z,7.50
2023-03-05T19:13:41.009Z,6.20
2023-03-05T19:16:14.573Z,7.82
2023-03-05T19:18:57.257Z,7.97
2023-03-05T19:21:25.005Z,7.30
2023-03-05T19:23:52.444Z,7.13
2023-03-05T19:26:19.938Z,6.90
2023-03-05T19:28:47.231Z,7.97
2023-03-05T19:31:15.733Z,10.05
2023-03-05T19:33:43.509Z,10.45
2023-03-05T19:36:12.465Z,9.23
2023-03-05T19:38:40.692Z,13.48
2023-03-05T19:41:10.254Z,6.53
2023-03-05T19:43:37.907Z,9.00
2023-03-05T19:46:07.444Z,7.97
2023-03-05T19:48:36.036Z,20.00
2023-03-05T19:51:07.501Z,14.55
2023-03-05T19:53:34.936Z,8.18
2023-03-05T19:56:03.515Z,9.68
2023-03-05T19:58:31.226Z,7.25
2023-03-05T20:01:11.570Z,7.25
2023-03-05T20:03:39.018Z,6.60
2023-03-05T20:06:07.428Z,6.70
2023-03-05T20:08:35.344Z,7.50
2023-03-05T20:11:02.860Z,7.13
2023-03-05T20:13:30.893Z,7.38
2023-03-05T20:15:58.578Z,6.35
2023-03-05T20:18:26.182Z,7.35
2023-03-05T20:20:55.092Z,6.93
2023-03-05T20:23:24.427Z,7.45
2023-03-05T20:25:52.302Z,7.40
2023-03-05T20:28:25.664Z,7.38
2023-03-05T20:30:57.805Z,8.65
2023-03-05T20:33:25.772Z,7.45
2023-03-05T20:35:54.342Z,6.55
2023-03-05T20:38:25.971Z,7.47
2023-03-05T20:40:55.823Z,8.98
2023-03-05T20:43:23.508Z,8.38
2023-03-05T20:45:50.788Z,7.85
2023-03-05T20:48:18.123Z,7.72
2023-03-05T20:50:46.816Z,8.90
2023-03-05T20:53:14.560Z,7.75
2023-03-05T20:55:42.246Z,7.90
2023-03-05T20:58:09.966Z,8.23
2023-03-05T21:00:38.230Z,8.98
2023-03-05T21:03:06.023Z,8.30
2023-03-05T21:05:33.858Z,8.23
2023-03-05T21:08:01.781Z,7.82
2023-03-05T21:10:29.112Z,7.65
2023-03-05T21:12:56.620Z,8.88
2023-03-05T21:15:27.298Z,7.75
2023-03-05T21:17:55.087Z,8.13
2023-03-05T21:20:29.415Z,9.05
2023-03-05T21:22:57.808Z,7.75
2023-03-05T21:25:29.472Z,9.48
2023-03-05T21:27:57.998Z,7.45
2023-03-05T21:30:46.540Z,8.10
2023-03-05T21:33:17.193Z,8.70
2023-03-05T21:35:44.930Z,9.70
2023-03-05T21:38:14.103Z,9.50
2023-03-05T21:40:45.549Z,8.55
2023-03-05T21:43:13.823Z,7.53
2023-03-05T21:45:41.821Z,7.00
2023-03-05T21:48:09.600Z,7.65
2023-03-05T21:50:40.362Z,7.30
2023-03-05T21:53:08.333Z,7.93
2023-03-05T21:55:46.508Z,7.68
2023-03-05T21:58:14.528Z,7.60
2023-03-05T22:00:41.790Z,7.55
2023-03-05T22:03:09.081Z,8.35
2023-03-05T22:05:36.786Z,7.85
2023-03-05T22:08:04.576Z,7.53
2023-03-05T22:10:32.241Z,6.95
2023-03-05T22:13:05.878Z,6.53
2023-03-05T22:15:33.962Z,8.30
2023-03-05T22:18:01.230Z,7.88
2023-03-05T22:20:28.508Z,8.38
2023-03-05T22:22:55.796Z,7.82
2023-03-05T22:25:23.180Z,8.57
2023-03-05T22:27:50.459Z,8.38
2023-03-05T22:30:17.927Z,7.82
2023-03-05T22:32:45.180Z,8.07
2023-03-05T22:35:14.717Z,8.07
2023-03-05T22:37:42.814Z,7.43
2023-03-05T22:40:15.309Z,7.65
2023-03-05T22:42:44.200Z,7.00
2023-03-05T22:45:13.086Z,8.38
2023-03-05T22:47:40.393Z,8.85
2023-03-05T22:50:08.642Z,8.57
2023-03-05T22:52:35.934Z,8.90
2023-03-05T22:55:04.579Z,8.80
2023-03-05T22:57:32.886Z,8.02
2023-03-05T23:00:00.336Z,8.57
2023-03-05T23:02:27.833Z,8.77
2023-03-05T23:04:57.765Z,9.65
2023-03-05T23:07:27.993Z,8.70
2023-03-05T23:09:58.124Z,8.82
2023-03-05T23:12:27.458Z,8.80
2023-03-05T23:14:55.184Z,8.98
2023-03-05T23:17:22.854Z,8.82
2023-03-05T23:19:50.401Z,9.13
2023-03-05T23:22:18.006Z,8.85
2023-03-05T23:24:45.594Z,10.05
2023-03-05T23:27:15.549Z,8.60
2023-03-05T23:30:04.478Z,9.27
2023-03-05T23:32:32.282Z,9.88
2023-03-05T23:34:59.946Z,8.52
2023-03-05T23:37:27.549Z,9.63
2023-03-05T23:39:55.077Z,9.60
2023-03-05T23:42:22.381Z,9.40
2023-03-05T23:44:49.611Z,11.18
2023-03-05T23:47:17.246Z,9.15
2023-03-05T23:49:44.464Z,9.90
2023-03-05T23:52:11.729Z,9.40
2023-03-05T23:54:38.960Z,9.93
2023-03-05T23:57:06.323Z,10.05
2023-03-05T23:59:34.707Z,10.90
